Time;durP1;ratioP1;P1;durP2;ratioP2;P2;SDS_P1;SDS_P2;PMS_P1;PMS_P2;Temp;Humidity;BMP_temperature;BMP_pressure;BME280_temperature;BME280_humidity;BME280_pressure;Samples;Min_cycle;Max_cycle;Signal;HPM_P1;HPM_P2
2021/08/24 00:01:51;;;;;;;1.63;1.00;;;;;;;;;;4973685;28;20218;-75
2021/08/24 00:04:55;;;;;;;1.20;1.10;;;;;;;;;;4974635;28;20511;-75
2021/08/24 00:07:59;;;;;;;2.77;1.23;;;;;;;;;;4973427;28;20198;-75
2021/08/24 00:11:04;;;;;;;2.30;1.20;;;;;;;;;;4975396;28;20226;-75
2021/08/24 00:14:08;;;;;;;1.87;1.07;;;;;;;;;;4978407;28;20202;-75
2021/08/24 00:17:13;;;;;;;1.20;1.00;;;;;;;;;;4978320;28;20202;-75
2021/08/24 00:20:16;;;;;;;2.17;1.20;;;;;;;;;;4978245;28;20190;-75
2021/08/24 00:23:24;;;;;;;1.37;1.20;;;;;;;;;;4977886;28;20174;-75
2021/08/24 00:26:28;;;;;;;1.20;1.10;;;;;;;;;;4978044;28;20224;-75
2021/08/24 00:29:32;;;;;;;2.23;1.47;;;;;;;;;;4977298;28;20186;-75
2021/08/24 00:32:46;;;;;;;1.70;1.37;;;;;;;;;;4959190;29;20191;-75
2021/08/24 00:35:51;;;;;;;1.60;1.10;;;;;;;;;;4964115;28;20649;-75
2021/08/24 00:38:55;;;;;;;3.07;1.30;;;;;;;;;;4978122;28;20191;-75
2021/08/24 00:41:59;;;;;;;1.30;1.20;;;;;;;;;;4977105;28;20222;-75
2021/08/24 00:45:07;;;;;;;4.10;1.30;;;;;;;;;;4978017;28;20179;-75
2021/08/24 00:48:11;;;;;;;1.60;1.30;;;;;;;;;;4978236;28;20178;-75
2021/08/24 00:51:18;;;;;;;3.80;1.60;;;;;;;;;;4977604;28;20222;-75
2021/08/24 00:54:26;;;;;;;2.20;1.40;;;;;;;;;;4976966;28;20210;-75
2021/08/24 00:57:29;;;;;;;4.43;1.50;;;;;;;;;;4971462;28;20214;-75
2021/08/24 01:00:34;;;;;;;1.63;1.30;;;;;;;;;;4976557;28;20191;-75
2021/08/24 01:03:47;;;;;;;2.40;1.50;;;;;;;;;;4977757;28;20191;-75
2021/08/24 01:07:03;;;;;;;1.63;1.50;;;;;;;;;;4977222;28;20650;-76
2021/08/24 01:10:38;;;;;;;2.20;1.80;;;;;;;;;;4977424;28;20648;-75
2021/08/24 01:14:01;;;;;;;1.80;1.60;;;;;;;;;;4976709;28;20187;-75
2021/08/24 01:17:33;;;;;;;2.17;1.60;;;;;;;;;;4957383;29;20188;-75
2021/08/24 01:21:11;;;;;;;2.03;1.50;;;;;;;;;;4966154;28;20222;-76
2021/08/24 01:24:24;;;;;;;2.03;1.67;;;;;;;;;;4976584;28;20225;-75
2021/08/24 01:27:42;;;;;;;4.73;1.70;;;;;;;;;;4963353;28;20203;-75
2021/08/24 01:31:10;;;;;;;3.23;1.70;;;;;;;;;;4976955;28;20685;-75
2021/08/24 01:34:17;;;;;;;3.40;1.80;;;;;;;;;;4977409;28;20171;-75
2021/08/24 01:37:31;;;;;;;3.80;2.03;;;;;;;;;;4958035;29;20175;-75
2021/08/24 01:41:02;;;;;;;3.70;1.90;;;;;;;;;;4964159;28;20195;-75
2021/08/24 01:44:22;;;;;;;4.00;1.87;;;;;;;;;;4976860;28;20202;-76
2021/08/24 01:47:49;;;;;;;2.60;2.10;;;;;;;;;;4976706;28;20195;-75
2021/08/24 01:51:01;;;;;;;4.23;2.17;;;;;;;;;;4976367;28;20222;-75
2021/08/24 01:54:14;;;;;;;2.60;1.90;;;;;;;;;;4975675;28;20203;-75
2021/08/24 01:57:26;;;;;;;3.73;2.50;;;;;;;;;;4975813;28;20210;-76
2021/08/24 02:00:35;;;;;;;3.87;2.43;;;;;;;;;;4976078;28;20191;-75
2021/08/24 02:03:45;;;;;;;4.10;2.40;;;;;;;;;;4976789;28;20187;-75
2021/08/24 02:06:49;;;;;;;3.67;2.30;;;;;;;;;;4976291;28;20203;-75
2021/08/24 02:09:59;;;;;;;4.40;2.43;;;;;;;;;;4975496;28;20203;-75
2021/08/24 02:13:04;;;;;;;3.47;2.33;;;;;;;;;;4957383;29;20188;-75
2021/08/24 02:16:14;;;;;;;5.23;2.50;;;;;;;;;;4956415;29;20172;-75
2021/08/24 02:19:32;;;;;;;5.77;2.57;;;;;;;;;;4973681;28;20202;-76
2021/08/24 02:22:39;;;;;;;5.23;2.47;;;;;;;;;;4956091;28;20223;-75
2021/08/24 02:25:47;;;;;;;4.50;2.93;;;;;;;;;;4974223;28;20206;-75
2021/08/24 02:28:55;;;;;;;5.03;2.73;;;;;;;;;;4976122;28;20187;-75
2021/08/24 02:32:09;;;;;;;7.47;3.03;;;;;;;;;;4972112;28;20222;-75
2021/08/24 02:35:24;;;;;;;7.77;3.33;;;;;;;;;;4974812;28;20187;-75
2021/08/24 02:38:34;;;;;;;5.93;2.83;;;;;;;;;;4956928;29;20508;-75
2021/08/24 02:41:52;;;;;;;4.63;3.00;;;;;;;;;;4969502;28;20567;-75
2021/08/24 02:45:11;;;;;;;4.53;3.20;;;;;;;;;;4971735;28;20219;-74
2021/08/24 02:48:17;;;;;;;5.80;2.90;;;;;;;;;;4975618;28;20662;-75
2021/08/24 02:51:22;;;;;;;8.13;3.10;;;;;;;;;;4975787;28;20222;-76
2021/08/24 02:54:33;;;;;;;5.90;3.47;;;;;;;;;;4974600;28;20183;-75
2021/08/24 02:57:37;;;;;;;4.63;3.13;;;;;;;;;;4974554;28;20210;-75
2021/08/24 03:00:42;;;;;;;6.37;3.10;;;;;;;;;;4975357;28;20226;-75
2021/08/24 03:03:46;;;;;;;9.53;3.97;;;;;;;;;;4974306;28;20183;-75
2021/08/24 03:06:55;;;;;;;7.70;3.50;;;;;;;;;;4974406;28;20207;-75
2021/08/24 03:10:02;;;;;;;7.87;3.40;;;;;;;;;;4975610;28;20183;-75
2021/08/24 03:13:19;;;;;;;5.67;3.40;;;;;;;;;;4975574;28;20179;-76
2021/08/24 03:16:36;;;;;;;10.00;4.27;;;;;;;;;;4957617;28;20176;-75
2021/08/24 03:19:42;;;;;;;5.10;3.80;;;;;;;;;;4975187;28;20179;-75
2021/08/24 03:22:47;;;;;;;5.53;3.53;;;;;;;;;;4974626;28;20183;-75
2021/08/24 03:25:52;;;;;;;5.30;3.53;;;;;;;;;;4974537;28;20206;-75
2021/08/24 03:28:56;;;;;;;5.47;3.57;;;;;;;;;;4955490;29;20187;-75
2021/08/24 03:32:03;;;;;;;6.47;3.77;;;;;;;;;;4955687;28;20219;-75
2021/08/24 03:35:09;;;;;;;8.43;4.20;;;;;;;;;;4966658;28;20199;-75
2021/08/24 03:38:15;;;;;;;5.17;3.40;;;;;;;;;;4974714;28;20195;-76
2021/08/24 03:41:19;;;;;;;5.37;3.67;;;;;;;;;;4973998;28;20222;-76
2021/08/24 03:44:23;;;;;;;5.87;3.37;;;;;;;;;;4974682;28;20214;-76
2021/08/24 03:47:27;;;;;;;6.50;3.40;;;;;;;;;;4973700;28;20199;-75
2021/08/24 03:50:32;;;;;;;5.53;3.07;;;;;;;;;;4974690;28;20182;-75
2021/08/24 03:53:36;;;;;;;3.90;2.90;;;;;;;;;;4974565;28;20179;-75
2021/08/24 03:56:41;;;;;;;6.53;3.37;;;;;;;;;;4973497;28;20174;-76
2021/08/24 03:59:45;;;;;;;3.60;2.83;;;;;;;;;;4988520;23;20234;-72
2021/08/24 04:02:49;;;;;;;6.00;3.23;;;;;;;;;;4955899;29;20180;-72
2021/08/24 04:06:02;;;;;;;7.40;3.37;;;;;;;;;;4936495;29;20580;-72
2021/08/24 04:09:06;;;;;;;8.33;3.17;;;;;;;;;;4936103;29;20666;-72
2021/08/24 04:12:11;;;;;;;4.80;3.27;;;;;;;;;;4936111;29;20227;-72
2021/08/24 04:15:14;;;;;;;4.33;3.10;;;;;;;;;;4950408;29;20646;-72
2021/08/24 04:18:18;;;;;;;5.10;3.60;;;;;;;;;;4954968;29;20195;-72
2021/08/24 04:21:22;;;;;;;4.53;3.23;;;;;;;;;;4955015;29;20223;-72
2021/08/24 04:24:27;;;;;;;5.93;3.40;;;;;;;;;;4953733;29;20236;-72
2021/08/24 04:27:30;;;;;;;6.43;3.20;;;;;;;;;;4942335;29;20179;-72
2021/08/24 04:30:36;;;;;;;5.13;3.63;;;;;;;;;;4954228;28;20179;-75
2021/08/24 04:33:41;;;;;;;9.97;3.83;;;;;;;;;;4954682;29;20199;-75
2021/08/24 04:36:45;;;;;;;5.80;4.00;;;;;;;;;;4955208;29;20180;-75
2021/08/24 04:39:49;;;;;;;5.40;3.60;;;;;;;;;;4946055;29;20192;-75
2021/08/24 04:42:54;;;;;;;6.60;4.60;;;;;;;;;;4935765;29;20200;-74
2021/08/24 04:45:58;;;;;;;5.83;4.33;;;;;;;;;;4954436;29;20219;-75
2021/08/24 04:49:02;;;;;;;6.33;4.30;;;;;;;;;;4954644;29;20188;-74
2021/08/24 04:52:06;;;;;;;5.00;3.80;;;;;;;;;;4954874;29;20227;-73
2021/08/24 04:55:11;;;;;;;7.77;4.23;;;;;;;;;;4954839;29;20187;-74
2021/08/24 04:58:15;;;;;;;6.30;4.50;;;;;;;;;;4957107;28;20196;-74
2021/08/24 05:01:19;;;;;;;8.53;4.73;;;;;;;;;;4957500;28;20215;-73
2021/08/24 05:04:24;;;;;;;7.17;4.13;;;;;;;;;;4957803;29;20199;-74
2021/08/24 05:07:29;;;;;;;5.17;4.33;;;;;;;;;;4958010;29;20195;-73
2021/08/24 05:10:33;;;;;;;6.73;4.80;;;;;;;;;;4958504;28;20199;-73
2021/08/24 05:13:37;;;;;;;7.73;4.40;;;;;;;;;;4958444;29;20520;-73
2021/08/24 05:16:41;;;;;;;6.50;4.93;;;;;;;;;;4957782;29;20191;-74
2021/08/24 05:19:45;;;;;;;7.13;4.50;;;;;;;;;;4956933;29;20192;-73
2021/08/24 05:22:49;;;;;;;7.70;5.50;;;;;;;;;;4968852;28;20187;-73
2021/08/24 05:25:53;;;;;;;8.57;5.80;;;;;;;;;;4957441;29;20211;-73
2021/08/24 05:28:57;;;;;;;7.27;5.70;;;;;;;;;;4938903;29;20184;-73
2021/08/24 05:32:02;;;;;;;7.93;5.40;;;;;;;;;;4938518;29;20220;-73
2021/08/24 05:35:07;;;;;;;6.60;5.50;;;;;;;;;;4938610;29;20200;-73
2021/08/24 05:38:11;;;;;;;9.57;6.30;;;;;;;;;;4951606;29;20199;-73
2021/08/24 05:41:15;;;;;;;6.87;5.00;;;;;;;;;;4947805;28;20710;-73
2021/08/24 05:44:19;;;;;;;11.87;5.80;;;;;;;;;;4956854;29;20191;-75
2021/08/24 05:47:24;;;;;;;6.00;4.93;;;;;;;;;;4957293;29;20183;-73
2021/08/24 05:50:28;;;;;;;8.23;6.10;;;;;;;;;;4957740;29;20184;-73
2021/08/24 05:53:32;;;;;;;12.53;6.33;;;;;;;;;;4957391;29;20191;-73
2021/08/24 05:56:36;;;;;;;11.73;6.33;;;;;;;;;;4939540;29;20180;-73
2021/08/24 05:59:40;;;;;;;8.33;6.10;;;;;;;;;;4956445;29;20207;-73
2021/08/24 06:02:46;;;;;;;8.20;6.07;;;;;;;;;;4957524;28;20219;-73
2021/08/24 06:05:50;;;;;;;8.00;6.43;;;;;;;;;;4956453;29;20219;-76
2021/08/24 06:08:56;;;;;;;7.70;6.07;;;;;;;;;;4955247;28;20531;-76
2021/08/24 06:12:01;;;;;;;7.40;6.27;;;;;;;;;;4957285;28;20223;-76
2021/08/24 06:15:06;;;;;;;9.33;6.57;;;;;;;;;;4956605;29;20195;-76
2021/08/24 06:18:10;;;;;;;8.83;6.70;;;;;;;;;;4954028;29;20187;-76
2021/08/24 06:21:16;;;;;;;10.00;6.40;;;;;;;;;;4956946;29;20230;-76
2021/08/24 06:24:20;;;;;;;7.63;6.43;;;;;;;;;;4950209;29;20544;-76
2021/08/24 06:27:25;;;;;;;7.53;6.27;;;;;;;;;;4945434;29;20206;-76
2021/08/24 06:30:31;;;;;;;7.23;5.93;;;;;;;;;;4970178;28;20194;-76
2021/08/24 06:33:37;;;;;;;9.97;6.60;;;;;;;;;;4975315;28;20277;-76
2021/08/24 06:36:42;;;;;;;7.57;6.07;;;;;;;;;;4975282;28;20195;-76
2021/08/24 06:39:46;;;;;;;7.07;5.90;;;;;;;;;;4976160;28;20187;-76
2021/08/24 06:42:53;;;;;;;7.00;6.00;;;;;;;;;;4960679;28;20532;-76
2021/08/24 06:45:57;;;;;;;9.03;6.27;;;;;;;;;;4956600;29;20682;-76
2021/08/24 06:49:01;;;;;;;7.63;6.23;;;;;;;;;;4956844;29;20187;-76
2021/08/24 06:52:05;;;;;;;9.30;6.73;;;;;;;;;;4955497;28;20227;-76
2021/08/24 06:55:12;;;;;;;8.00;6.70;;;;;;;;;;4955518;29;20199;-76
2021/08/24 06:58:18;;;;;;;8.03;6.20;;;;;;;;;;4956263;29;20212;-76
2021/08/24 07:01:24;;;;;;;10.67;7.53;;;;;;;;;;4956304;28;20222;-76
2021/08/24 07:04:29;;;;;;;8.90;6.43;;;;;;;;;;4956357;29;20671;-76
2021/08/24 07:07:33;;;;;;;9.27;6.40;;;;;;;;;;4956205;29;20180;-76
2021/08/24 07:10:38;;;;;;;10.77;7.40;;;;;;;;;;4944337;28;20192;-76
2021/08/24 07:13:43;;;;;;;7.90;7.03;;;;;;;;;;4955650;29;20180;-76
2021/08/24 07:16:47;;;;;;;8.13;7.10;;;;;;;;;;4956010;29;20195;-76
2021/08/24 07:19:53;;;;;;;7.83;7.03;;;;;;;;;;4974569;28;20198;-76
2021/08/24 07:22:59;;;;;;;9.57;6.17;;;;;;;;;;4974528;28;20187;-76
2021/08/24 07:26:03;;;;;;;12.63;6.77;;;;;;;;;;4950078;28;20208;-76
2021/08/24 07:29:07;;;;;;;8.10;6.97;;;;;;;;;;4947456;29;20200;-76
2021/08/24 07:32:11;;;;;;;9.17;6.80;;;;;;;;;;4935908;29;20224;-76
2021/08/24 07:35:18;;;;;;;12.07;6.70;;;;;;;;;;4935849;29;20188;-75
2021/08/24 07:38:22;;;;;;;7.37;6.37;;;;;;;;;;4944574;28;20524;-76
2021/08/24 07:41:25;;;;;;;10.63;7.23;;;;;;;;;;4960292;28;20567;-75
2021/08/24 07:44:33;;;;;;;7.33;6.50;;;;;;;;;;4955625;29;20183;-76
2021/08/24 07:47:37;;;;;;;7.63;6.87;;;;;;;;;;4944074;29;20183;-76
2021/08/24 07:50:42;;;;;;;11.23;7.07;;;;;;;;;;4955523;28;20230;-76
2021/08/24 07:53:48;;;;;;;8.07;6.30;;;;;;;;;;4952436;29;20199;-76
2021/08/24 07:56:52;;;;;;;7.80;6.27;;;;;;;;;;4965685;28;20195;-76
2021/08/24 07:59:56;;;;;;;7.47;6.67;;;;;;;;;;4967417;28;20215;-76
2021/08/24 08:03:00;;;;;;;9.57;7.30;;;;;;;;;;4955096;29;20187;-75
2021/08/24 08:06:05;;;;;;;9.20;6.63;;;;;;;;;;4954625;29;20556;-76
2021/08/24 08:09:09;;;;;;;9.53;7.03;;;;;;;;;;4955543;29;20184;-76
2021/08/24 08:12:16;;;;;;;7.00;6.10;;;;;;;;;;4963428;28;20230;-76
2021/08/24 08:15:21;;;;;;;7.60;6.10;;;;;;;;;;4973900;28;20186;-76
2021/08/24 08:18:25;;;;;;;7.90;6.57;;;;;;;;;;4974560;28;20179;-76
2021/08/24 08:21:33;;;;;;;8.10;6.23;;;;;;;;;;4973906;28;20218;-76
2021/08/24 08:24:37;;;;;;;6.20;5.60;;;;;;;;;;4974039;28;20183;-76
2021/08/24 08:27:41;;;;;;;5.93;5.30;;;;;;;;;;4973404;28;20562;-76
2021/08/24 08:30:46;;;;;;;7.33;5.40;;;;;;;;;;4974334;28;20218;-76
2021/08/24 08:33:51;;;;;;;6.97;6.00;;;;;;;;;;4978335;28;20202;-76
2021/08/24 08:36:55;;;;;;;8.60;5.70;;;;;;;;;;4978406;28;20206;-76
2021/08/24 08:39:59;;;;;;;7.97;5.30;;;;;;;;;;4978160;28;20535;-76
2021/08/24 08:43:13;;;;;;;9.93;5.37;;;;;;;;;;4978157;28;20187;-76
2021/08/24 08:46:40;;;;;;;7.30;5.57;;;;;;;;;;4978058;28;20210;-75
2021/08/24 08:49:50;;;;;;;6.03;5.40;;;;;;;;;;4962215;28;20532;-76
2021/08/24 08:53:04;;;;;;;6.67;4.87;;;;;;;;;;4958982;29;20191;-76
2021/08/24 08:56:23;;;;;;;5.90;4.93;;;;;;;;;;4958622;29;20180;-76
2021/08/24 08:59:37;;;;;;;6.00;4.90;;;;;;;;;;4958569;29;20211;-76
2021/08/24 09:02:46;;;;;;;5.93;5.10;;;;;;;;;;4957571;28;20227;-76
2021/08/24 09:05:53;;;;;;;5.07;4.33;;;;;;;;;;4958664;29;20219;-76
2021/08/24 09:08:58;;;;;;;5.20;4.70;;;;;;;;;;4957724;29;20199;-76
2021/08/24 09:12:06;;;;;;;5.60;4.50;;;;;;;;;;4958324;28;20223;-75
2021/08/24 09:15:17;;;;;;;5.53;4.20;;;;;;;;;;4958886;29;20508;-76
2021/08/24 09:18:38;;;;;;;3.80;3.43;;;;;;;;;;4957738;29;20627;-76
2021/08/24 09:21:45;;;;;;;6.00;3.70;;;;;;;;;;4958572;28;20219;-76
2021/08/24 09:24:49;;;;;;;6.07;3.50;;;;;;;;;;4946244;29;20199;-76
2021/08/24 09:28:05;;;;;;;6.10;4.13;;;;;;;;;;4958086;29;20204;-76
2021/08/24 09:31:19;;;;;;;5.13;3.90;;;;;;;;;;4957224;28;20223;-77
2021/08/24 09:34:28;;;;;;;3.33;3.03;;;;;;;;;;4958322;29;20191;-76
2021/08/24 09:37:37;;;;;;;4.80;3.23;;;;;;;;;;4958173;29;20172;-76
2021/08/24 09:40:46;;;;;;;6.03;3.13;;;;;;;;;;4957397;28;20219;-76
2021/08/24 09:43:53;;;;;;;3.53;3.23;;;;;;;;;;4967100;28;20512;-76
2021/08/24 09:47:14;;;;;;;3.77;3.20;;;;;;;;;;4958028;29;20215;-76
2021/08/24 09:50:22;;;;;;;3.50;3.10;;;;;;;;;;4938772;29;20188;-76
2021/08/24 09:53:34;;;;;;;3.60;3.30;;;;;;;;;;4948922;29;20643;-76
2021/08/24 09:56:42;;;;;;;4.10;3.23;;;;;;;;;;4948833;29;20188;-76
2021/08/24 10:00:08;;;;;;;5.47;3.00;;;;;;;;;;4975032;23;20590;-86
2021/08/24 10:03:28;;;;;;;3.60;3.13;;;;;;;;;;4957111;29;20180;-86
2021/08/24 10:06:34;;;;;;;3.17;2.87;;;;;;;;;;4973405;28;20565;-86
2021/08/24 10:09:42;;;;;;;2.70;2.40;;;;;;;;;;4965252;28;20547;-86
2021/08/24 10:12:51;;;;;;;4.03;3.00;;;;;;;;;;4965182;28;20186;-86
2021/08/24 10:16:24;;;;;;;6.43;3.00;;;;;;;;;;4954111;28;20187;-86
2021/08/24 10:19:31;;;;;;;3.90;2.50;;;;;;;;;;4937240;29;20232;-86
2021/08/24 10:22:37;;;;;;;3.07;2.43;;;;;;;;;;4928098;29;20192;-86
2021/08/24 10:25:48;;;;;;;3.40;2.67;;;;;;;;;;4945671;29;20192;-86
2021/08/24 10:28:58;;;;;;;2.30;2.07;;;;;;;;;;4926794;29;20227;-86
2021/08/24 10:32:07;;;;;;;2.17;1.97;;;;;;;;;;4944905;29;20195;-86
2021/08/24 10:35:16;;;;;;;2.93;2.30;;;;;;;;;;4943521;29;20195;-86
2021/08/24 10:39:04;;;;;;;2.53;2.17;;;;;;;;;;4956486;29;20184;-87
2021/08/24 10:42:17;;;;;;;5.80;2.40;;;;;;;;;;4950593;28;20647;-84
2021/08/24 10:45:27;;;;;;;2.93;2.63;;;;;;;;;;4956022;29;20203;-85
2021/08/24 10:48:34;;;;;;;3.20;2.63;;;;;;;;;;4934276;29;20172;-85
2021/08/24 10:52:01;;;;;;;4.47;3.47;;;;;;;;;;4934967;29;20195;-85
2021/08/24 10:55:17;;;;;;;4.03;2.70;;;;;;;;;;4934901;29;20635;-85
2021/08/24 10:58:35;;;;;;;5.57;2.50;;;;;;;;;;4924475;29;20185;-85
2021/08/24 11:01:51;;;;;;;2.60;2.40;;;;;;;;;;4931488;29;20180;-86
2021/08/24 11:05:23;;;;;;;2.90;2.70;;;;;;;;;;4932447;29;20179;-85
2021/08/24 11:08:38;;;;;;;4.40;3.10;;;;;;;;;;4953797;29;20207;-85
2021/08/24 11:12:03;;;;;;;2.63;2.30;;;;;;;;;;4943100;29;20180;-85
2021/08/24 11:15:19;;;;;;;4.33;2.60;;;;;;;;;;4942160;29;20188;-85
2021/08/24 11:18:48;;;;;;;2.80;2.50;;;;;;;;;;4913221;29;20184;-85
2021/08/24 11:22:02;;;;;;;2.43;2.23;;;;;;;;;;4934829;29;20189;-85
2021/08/24 11:25:15;;;;;;;2.53;1.90;;;;;;;;;;4945536;29;20651;-86
2021/08/24 11:29:01;;;;;;;2.57;2.37;;;;;;;;;;4923587;29;20220;-85
2021/08/24 11:32:23;;;;;;;2.57;2.13;;;;;;;;;;4929329;29;20185;-86
2021/08/24 11:35:52;;;;;;;3.83;3.10;;;;;;;;;;4912777;29;20188;-86
2021/08/24 11:39:20;;;;;;;4.93;3.43;;;;;;;;;;4934719;29;20228;-86
2021/08/24 11:42:42;;;;;;;3.83;2.53;;;;;;;;;;4923591;29;20185;-86
2021/08/24 11:45:52;;;;;;;4.17;2.67;;;;;;;;;;4923152;29;20533;-86
2021/08/24 11:49:24;;;;;;;2.57;2.37;;;;;;;;;;4944743;28;20227;-86
2021/08/24 11:52:55;;;;;;;3.23;2.70;;;;;;;;;;4931803;29;20184;-86
2021/08/24 11:56:01;;;;;;;4.00;2.80;;;;;;;;;;4953391;29;20184;-86
2021/08/24 11:59:17;;;;;;;2.43;2.17;;;;;;;;;;4921191;29;20223;-85
2021/08/24 12:02:26;;;;;;;3.23;2.50;;;;;;;;;;4923732;29;20184;-86
2021/08/24 12:05:40;;;;;;;4.03;2.90;;;;;;;;;;4923656;29;20180;-86
2021/08/24 12:08:50;;;;;;;2.53;2.33;;;;;;;;;;4922927;29;20223;-86
2021/08/24 12:11:54;;;;;;;3.87;2.93;;;;;;;;;;4934656;29;20636;-86
2021/08/24 12:15:16;;;;;;;3.13;2.40;;;;;;;;;;4923308;29;20196;-86
2021/08/24 12:18:25;;;;;;;2.80;2.60;;;;;;;;;;4924221;29;20191;-86
2021/08/24 12:21:46;;;;;;;4.10;2.67;;;;;;;;;;4942035;29;20512;-84
2021/08/24 12:25:10;;;;;;;3.43;2.50;;;;;;;;;;4952652;29;20188;-84
2021/08/24 12:28:15;;;;;;;3.57;2.53;;;;;;;;;;4941462;29;20211;-84
2021/08/24 12:31:39;;;;;;;2.93;2.30;;;;;;;;;;4942737;29;20203;-90
2021/08/24 12:35:07;;;;;;;3.10;2.50;;;;;;;;;;4946689;29;20192;-90
2021/08/24 12:38:42;;;;;;;3.13;2.47;;;;;;;;;;4928893;29;20223;-89
2021/08/24 12:41:47;;;;;;;2.80;2.50;;;;;;;;;;4923907;29;20639;-91
2021/08/24 12:44:57;;;;;;;3.00;2.70;;;;;;;;;;4936677;29;20192;-91
2021/08/24 12:48:19;;;;;;;2.63;2.43;;;;;;;;;;4914506;29;20212;-91
2021/08/24 12:51:30;;;;;;;2.87;2.60;;;;;;;;;;4942364;29;20620;-91
2021/08/24 12:54:49;;;;;;;3.73;3.33;;;;;;;;;;4931491;29;20521;-85
2021/08/24 12:58:03;;;;;;;2.93;2.53;;;;;;;;;;4941680;29;20172;-88
2021/08/24 13:01:17;;;;;;;3.97;2.50;;;;;;;;;;4930460;29;20196;-88
2021/08/24 13:04:23;;;;;;;4.13;2.70;;;;;;;;;;4926862;29;20533;-88
2021/08/24 13:07:30;;;;;;;3.77;2.73;;;;;;;;;;4920801;29;20203;-88
2021/08/24 13:10:46;;;;;;;2.73;2.40;;;;;;;;;;4941648;29;20227;-88
2021/08/24 13:13:55;;;;;;;3.23;2.90;;;;;;;;;;4941414;29;20539;-89
2021/08/24 13:17:00;;;;;;;4.17;2.30;;;;;;;;;;4930963;29;20203;-87
2021/08/24 13:20:08;;;;;;;4.77;2.20;;;;;;;;;;4926535;29;20565;-88
2021/08/24 13:23:35;;;;;;;4.77;2.40;;;;;;;;;;4915174;29;20204;-88
2021/08/24 13:27:13;;;;;;;5.43;2.60;;;;;;;;;;4914961;29;20643;-88
2021/08/24 13:30:30;;;;;;;3.37;2.37;;;;;;;;;;4915487;29;20224;-88
2021/08/24 13:33:47;;;;;;;2.50;2.30;;;;;;;;;;4936557;29;20184;-88
2021/08/24 13:36:54;;;;;;;3.70;3.30;;;;;;;;;;4915121;29;20188;-88
2021/08/24 13:40:04;;;;;;;5.73;2.70;;;;;;;;;;4915132;29;20220;-89
2021/08/24 13:43:10;;;;;;;2.90;2.60;;;;;;;;;;4926057;29;20567;-89
2021/08/24 13:46:13;;;;;;;4.07;2.67;;;;;;;;;;4914874;29;20527;-88
2021/08/24 13:49:19;;;;;;;5.20;2.80;;;;;;;;;;4936709;29;20212;-89
2021/08/24 13:52:43;;;;;;;6.00;2.80;;;;;;;;;;4925705;29;20180;-89
2021/08/24 13:56:08;;;;;;;3.63;2.43;;;;;;;;;;4914684;29;20192;-88
2021/08/24 13:59:21;;;;;;;5.20;2.60;;;;;;;;;;4936598;29;20227;-88
2021/08/24 14:02:29;;;;;;;6.00;2.60;;;;;;;;;;4936162;29;20184;-88
2021/08/24 14:05:33;;;;;;;3.77;2.90;;;;;;;;;;4914614;29;20188;-89
2021/08/24 14:08:42;;;;;;;6.67;2.70;;;;;;;;;;4937346;29;20576;-89
2021/08/24 14:11:50;;;;;;;10.03;3.10;;;;;;;;;;4916151;29;20196;-89
2021/08/24 14:15:06;;;;;;;6.27;2.70;;;;;;;;;;4926938;29;20189;-89
2021/08/24 14:18:22;;;;;;;7.07;4.20;;;;;;;;;;4926784;29;20624;-89
2021/08/24 14:21:29;;;;;;;3.20;2.90;;;;;;;;;;4938031;29;20188;-89
2021/08/24 14:24:35;;;;;;;3.00;2.57;;;;;;;;;;4938603;29;20184;-89
2021/08/24 14:27:40;;;;;;;3.27;3.00;;;;;;;;;;4937469;29;20208;-88
2021/08/24 14:30:45;;;;;;;4.13;2.97;;;;;;;;;;4925790;29;20220;-88
2021/08/24 14:33:51;;;;;;;4.73;3.40;;;;;;;;;;4926547;29;20188;-88
2021/08/24 14:37:06;;;;;;;5.77;3.90;;;;;;;;;;4926499;29;20509;-87
2021/08/24 14:40:25;;;;;;;3.90;3.60;;;;;;;;;;4925957;29;20221;-87
2021/08/24 14:43:30;;;;;;;6.27;4.43;;;;;;;;;;4915443;29;20193;-87
2021/08/24 14:46:48;;;;;;;4.37;3.97;;;;;;;;;;4915056;29;20212;-87
2021/08/24 14:49:53;;;;;;;4.27;3.87;;;;;;;;;;4926133;29;20553;-88
2021/08/24 14:52:58;;;;;;;6.70;3.60;;;;;;;;;;4926183;29;20189;-89
2021/08/24 14:56:07;;;;;;;7.23;4.27;;;;;;;;;;4914987;29;20197;-87
2021/08/24 14:59:17;;;;;;;4.93;4.10;;;;;;;;;;4932657;28;20239;-87
2021/08/24 15:02:41;;;;;;;4.83;4.33;;;;;;;;;;4938434;29;20235;-87
2021/08/24 15:05:50;;;;;;;8.80;5.00;;;;;;;;;;4924618;29;20181;-87
2021/08/24 15:08:54;;;;;;;4.77;4.33;;;;;;;;;;4913450;29;20243;-87
2021/08/24 15:12:02;;;;;;;5.60;4.43;;;;;;;;;;4924747;29;20180;-86
2021/08/24 15:15:15;;;;;;;6.83;4.10;;;;;;;;;;4925290;29;20192;-87
2021/08/24 15:18:28;;;;;;;5.10;4.60;;;;;;;;;;4943342;29;20176;-87
2021/08/24 15:21:44;;;;;;;5.07;4.07;;;;;;;;;;4943154;29;20175;-87
2021/08/24 15:24:50;;;;;;;10.20;5.03;;;;;;;;;;4926660;29;20192;-87
2021/08/24 15:28:03;;;;;;;5.07;4.30;;;;;;;;;;4954281;29;20551;-87
2021/08/24 15:31:16;;;;;;;5.17;4.67;;;;;;;;;;4932587;29;20683;-87
2021/08/24 15:34:20;;;;;;;4.97;4.43;;;;;;;;;;4943026;29;20195;-87
2021/08/24 15:37:24;;;;;;;6.70;4.60;;;;;;;;;;4943362;29;20183;-87
2021/08/24 15:40:28;;;;;;;6.00;4.30;;;;;;;;;;4941426;29;20223;-87
2021/08/24 15:43:35;;;;;;;6.47;4.73;;;;;;;;;;4934626;29;20184;-87
2021/08/24 15:46:43;;;;;;;15.10;4.77;;;;;;;;;;4923940;29;20533;-87
2021/08/24 15:49:47;;;;;;;6.20;4.50;;;;;;;;;;4935159;29;20235;-87
2021/08/24 15:52:51;;;;;;;6.73;4.77;;;;;;;;;;4924110;29;20203;-87
2021/08/24 15:55:57;;;;;;;4.70;4.23;;;;;;;;;;4924294;29;20184;-87
2021/08/24 15:59:04;;;;;;;6.50;4.03;;;;;;;;;;4953885;28;20964;-87
2021/08/24 16:02:09;;;;;;;11.70;4.20;;;;;;;;;;4912953;29;20643;-86
2021/08/24 16:05:16;;;;;;;7.20;4.37;;;;;;;;;;4912822;29;20192;-87
2021/08/24 16:08:21;;;;;;;5.27;4.07;;;;;;;;;;4913013;29;20212;-87
2021/08/24 16:11:38;;;;;;;4.10;3.70;;;;;;;;;;4924453;29;20620;-87
2021/08/24 16:14:42;;;;;;;5.57;4.20;;;;;;;;;;4942868;29;20195;-86
2021/08/24 16:17:46;;;;;;;6.33;4.40;;;;;;;;;;4942958;29;20183;-87
2021/08/24 16:20:51;;;;;;;8.93;4.67;;;;;;;;;;4937364;29;20563;-87
2021/08/24 16:23:55;;;;;;;4.73;4.03;;;;;;;;;;4927551;29;20192;-87
2021/08/24 16:27:00;;;;;;;6.40;4.10;;;;;;;;;;4923484;29;20196;-87
2021/08/24 16:30:08;;;;;;;9.77;4.33;;;;;;;;;;4912913;29;20212;-87
2021/08/24 16:33:12;;;;;;;6.90;4.80;;;;;;;;;;4923681;29;20200;-87
2021/08/24 16:36:17;;;;;;;5.33;4.83;;;;;;;;;;4929696;29;20258;-87
2021/08/24 16:39:21;;;;;;;4.67;4.17;;;;;;;;;;4942122;28;20211;-86
2021/08/24 16:42:25;;;;;;;5.43;4.17;;;;;;;;;;4953462;29;20187;-87
2021/08/24 16:45:31;;;;;;;5.07;4.40;;;;;;;;;;4931446;29;20540;-87
2021/08/24 16:48:35;;;;;;;4.93;4.40;;;;;;;;;;4930948;28;20227;-86
2021/08/24 16:51:39;;;;;;;5.43;3.60;;;;;;;;;;4952979;29;20211;-86
2021/08/24 16:54:43;;;;;;;4.83;3.60;;;;;;;;;;4945822;29;20199;-87
2021/08/24 16:57:47;;;;;;;4.97;3.83;;;;;;;;;;4970271;28;20207;-87
2021/08/24 17:00:51;;;;;;;4.10;3.63;;;;;;;;;;4945297;29;20238;-86
2021/08/24 17:03:55;;;;;;;5.43;4.43;;;;;;;;;;4930973;29;20200;-86
2021/08/24 17:06:59;;;;;;;6.60;4.33;;;;;;;;;;4934840;29;20187;-86
2021/08/24 17:10:07;;;;;;;6.10;4.03;;;;;;;;;;4955779;28;20223;-86
2021/08/24 17:13:11;;;;;;;8.53;4.90;;;;;;;;;;4945290;29;20184;-86
2021/08/24 17:16:15;;;;;;;5.00;4.03;;;;;;;;;;4926730;29;20184;-85
2021/08/24 17:19:19;;;;;;;4.33;3.90;;;;;;;;;;4925762;29;20552;-86
2021/08/24 17:22:24;;;;;;;5.93;3.87;;;;;;;;;;4926000;29;20668;-87
2021/08/24 17:25:39;;;;;;;6.23;4.13;;;;;;;;;;4937261;29;20188;-86
2021/08/24 17:28:44;;;;;;;5.30;4.07;;;;;;;;;;4926254;29;20204;-86
2021/08/24 17:31:53;;;;;;;5.10;4.00;;;;;;;;;;4926943;29;20188;-85
2021/08/24 17:34:57;;;;;;;5.93;4.27;;;;;;;;;;4925963;29;20180;-86
2021/08/24 17:38:01;;;;;;;6.83;4.07;;;;;;;;;;4926150;29;20180;-85
2021/08/24 17:41:05;;;;;;;5.47;4.30;;;;;;;;;;4914744;29;20203;-86
2021/08/24 17:44:11;;;;;;;4.23;3.80;;;;;;;;;;4925329;29;20742;-85
2021/08/24 17:47:15;;;;;;;6.97;4.57;;;;;;;;;;4914874;29;20204;-85
2021/08/24 17:50:26;;;;;;;5.67;4.77;;;;;;;;;;4935974;29;20231;-85
2021/08/24 17:53:34;;;;;;;5.80;4.23;;;;;;;;;;4925498;29;20184;-85
2021/08/24 17:56:38;;;;;;;6.77;4.37;;;;;;;;;;4925381;29;20184;-85
2021/08/24 17:59:42;;;;;;;5.53;4.40;;;;;;;;;;4914294;29;20228;-85
2021/08/24 18:02:47;;;;;;;7.90;5.10;;;;;;;;;;4925408;29;20184;-85
2021/08/24 18:05:53;;;;;;;8.17;4.60;;;;;;;;;;4913200;29;20180;-85
2021/08/24 18:08:58;;;;;;;7.87;4.30;;;;;;;;;;4924935;29;20235;-85
2021/08/24 18:12:02;;;;;;;5.73;4.90;;;;;;;;;;4952396;29;20195;-85
2021/08/24 18:15:08;;;;;;;5.00;4.50;;;;;;;;;;4944285;29;20183;-85
2021/08/24 18:18:17;;;;;;;9.03;5.20;;;;;;;;;;4933333;29;20183;-86
2021/08/24 18:21:21;;;;;;;6.53;4.90;;;;;;;;;;4925620;29;20188;-86
2021/08/24 18:24:32;;;;;;;5.90;4.30;;;;;;;;;;4924732;29;20656;-85
2021/08/24 18:27:36;;;;;;;5.33;4.67;;;;;;;;;;4934173;29;20188;-85
2021/08/24 18:30:42;;;;;;;6.67;5.60;;;;;;;;;;4924854;29;20224;-85
2021/08/24 18:33:47;;;;;;;7.07;5.33;;;;;;;;;;4913695;29;20199;-85
2021/08/24 18:36:51;;;;;;;6.57;5.60;;;;;;;;;;4924753;29;20184;-85
2021/08/24 18:39:55;;;;;;;7.60;6.03;;;;;;;;;;4924514;29;20216;-85
2021/08/24 18:43:01;;;;;;;10.63;6.23;;;;;;;;;;4924756;29;20212;-85
2021/08/24 18:46:06;;;;;;;8.10;5.93;;;;;;;;;;4935281;29;20188;-86
2021/08/24 18:49:10;;;;;;;6.53;5.63;;;;;;;;;;4924496;29;20232;-85
2021/08/24 18:52:14;;;;;;;6.03;5.43;;;;;;;;;;4924510;29;20639;-86
2021/08/24 18:55:42;;;;;;;7.03;6.33;;;;;;;;;;4924362;29;20192;-85